Giebelstadt Army Air Field


Codes: ETEU/
Name: Giebelstadt Army Air Field
City:
Country: Germany
Elevation: 980 ft.

Photos at Giebelstadt Army Air Field


   Photos courtesy of SpottingLog. You can add your own sightings and photos by signing up for a free trial today.



No photos found.

Weather at Giebelstadt Army Air Field


Time (UTC)DescriptionTempratureWindCloud coverageVisibilityPressureHumidity
25-Jun-2024 12:00Clear Sky26°C11 mph, NE6%10000m1014hPa52%
25-Jun-2024 15:00Clear Sky26°C9 mph, NE4%10000m1013hPa54%
25-Jun-2024 18:00Clear Sky24°C7 mph, NE6%10000m1012hPa69%
25-Jun-2024 21:00Clear Sky17°C7 mph, NE0%10000m1011hPa82%
26-Jun-2024 00:00Clear Sky16°C7 mph, NE0%10000m1011hPa88%
26-Jun-2024 03:00Clear Sky15°C4 mph, NE0%10000m1010hPa94%
26-Jun-2024 06:00Clear Sky18°C4 mph, NE1%10000m1011hPa87%
26-Jun-2024 09:00Few Clouds22°C7 mph, NE14%10000m1010hPa75%
26-Jun-2024 12:00Scattered Clouds26°C2 mph, E31%10000m1009hPa63%
26-Jun-2024 15:00Broken Clouds27°C4 mph, NW71%10000m1008hPa59%
26-Jun-2024 18:00Light Rain24°C4 mph, W41%10000m1008hPa77%
26-Jun-2024 21:00Light Rain19°C4 mph, N86%10000m1009hPa90%
27-Jun-2024 00:00Light Rain18°C2 mph, S93%10000m1009hPa87%
27-Jun-2024 03:00Light Rain17°C4 mph, SW100%10000m1009hPa94%
27-Jun-2024 06:00Light Rain20°C4 mph, SW93%10000m1009hPa89%
27-Jun-2024 09:00Light Rain24°C9 mph, W70%10000m1009hPa78%
27-Jun-2024 12:00Light Rain26°C9 mph, W72%10000m1009hPa66%
27-Jun-2024 15:00Light Rain25°C7 mph, W66%10000m1010hPa78%
27-Jun-2024 18:00Light Rain23°C9 mph, SW48%10000m1010hPa85%
27-Jun-2024 21:00Clear Sky19°C9 mph, SW4%10000m1012hPa91%
28-Jun-2024 00:00Few Clouds18°C7 mph, SW15%10000m1013hPa94%
28-Jun-2024 03:00Broken Clouds18°C7 mph, SW70%10000m1013hPa95%
28-Jun-2024 06:00Broken Clouds20°C9 mph, SW55%10000m1015hPa90%
28-Jun-2024 09:00Light Rain23°C11 mph, SW2%10000m1015hPa79%
28-Jun-2024 12:00Light Rain23°C11 mph, W48%10000m1016hPa79%
28-Jun-2024 15:00Light Rain25°C7 mph, W100%10000m1016hPa72%
28-Jun-2024 18:00Broken Clouds24°C0 mph, S82%10000m1017hPa77%
28-Jun-2024 21:00Scattered Clouds19°C2 mph, SE47%10000m1017hPa87%
29-Jun-2024 00:00Few Clouds18°C2 mph, E24%10000m1016hPa90%
29-Jun-2024 03:00Clear Sky18°C4 mph, E5%10000m1015hPa93%
29-Jun-2024 06:00Scattered Clouds21°C7 mph, E41%10000m1014hPa88%
29-Jun-2024 09:00Broken Clouds26°C9 mph, SE78%10000m1012hPa72%
29-Jun-2024 12:00Broken Clouds30°C9 mph, SE80%10000m1009hPa59%
29-Jun-2024 15:00Overcast Clouds31°C7 mph, S87%10000m1006hPa58%
29-Jun-2024 18:00Broken Clouds28°C2 mph, NE80%10000m1004hPa72%
29-Jun-2024 21:00Heavy Intensity Rain18°C7 mph, S100%5497m1008hPa98%
30-Jun-2024 00:00Light Rain18°C13 mph, S100%10000m1007hPa93%
30-Jun-2024 03:00Broken Clouds18°C13 mph, SW64%10000m1007hPa93%
30-Jun-2024 06:00Broken Clouds18°C18 mph, SW76%10000m1008hPa90%
30-Jun-2024 09:00Light Rain16°C18 mph, SW70%10000m1011hPa86%